FLIGHT DETAILS
Pilot: AWX0001 Luca Nicolini Aircraft: BOEING B737-800X AXP DELTA N3737C Distance: 564NM
Departure SKCC Arrival SKPS Duration 01:21
Validation Validated Type Charter Tail Number I-AWX1
ZFW 58412 Block Fuel/Initial FOB 3,874/0 Flight Fuel 3,679
Passengers 170 Cargo 0 Alternate SKIP
Departure Time Cruise Speed Flight Level 38000
Flight Type IFR Aircraft Type B738 Weight Unit Kg
Date 19-09-2019 Pilot Comments Network VATSIM
Crashed No Validator Comments Flight Rating 99

 ROUTE
ROUTE ESITU DCT PIE UW9 ZIP UA550 MER
REMARKS
 FLIGHT FAILURES
Crashed OK Beacon off & Engine Running OK KIAS Above 250 below 10000 FT OK
Lights OFF below 10000 FT OK Lights ON above 10000 FT OK Stall OK
Overspeed OK Flight paused Fail Refueling OK
Slew detected OK Taxi & Taxi lights off OK Take off & lights off OK
Landing & lights off OK Landed in not planned airport OK Taxi Speed OK
Wrong altimeter in Take off OK Wrong altimeter in Landing OK
 LANDING ANALYSIS
Landing wind 345º/7 kt Landing heading 192
Landing VS: -127.65 ft/min Landing IAS: 137.09 kt
Landing Force G 0.9 G Landing Bank 1.3
Landing Pitch 3.5 Landing Flaps 48
Navigation Lights ON Landing Lights ON
Beacon Lights ON Strobe Lights OFF
 FLIGHT MAP
 ALTITUDE CHART
 FLIGHT FINANCIAL REPORT
Onboard Advertising 1,000.00
WiFi Onboard Connection(14). Number of PAX: 170 2,380.00
Number of PAX:170 .Price per PAX:141 23,970.00
Aerodrome Facility Charges -20.00
HUB Expenses -232.00
Aircraft Insurance(0.7). Distance: 564 -394.80
Enroute Facility Charges(0.04). Distance: 564 -22.56
Airport Charges(2). Number of PAX: 170 -340.00
Maintenance Costs(1.1). Distance: 564 -620.40
Administration Expenses(0.2). Distance: 564 -112.80
Fuel Expenses(0.6). Fuel used: 3873.7 -2,324.22
TOTAL 23,283.22
 MAIN EVENTS
DATE EVENTIASALTITUDE
2019-09-19 14:19:13 SIM ACARS version 1.4.061032
2019-09-19 14:19:13 BOARDING61032
2019-09-19 14:29:15 STARTING ENGINE 2 71032
2019-09-19 14:30:32 STARTING ENGINE 1 71032
2019-09-19 14:31:36 FLAPS EXTENSION 12 % 71032
2019-09-19 14:31:37 FLAPS EXTENSION 25 % 71032
2019-09-19 14:31:37 FLAPS EXTENSION 37 % 71032
2019-09-19 14:34:06 TAXI TO THE RWY 21032
2019-09-19 14:35:21 ROLLING FOR TAKE OFF461032
2019-09-19 14:35:47 TAKE OFF1521065
2019-09-19 14:35:50 GEAR UP1571114
2019-09-19 14:36:56 FLAPS EXTENSION 25 % 1923144
2019-09-19 14:36:58 FLAPS EXTENSION 12 % 1933192
2019-09-19 14:37:08 FLAPS EXTENSION 0 % 2043373
2019-09-19 14:58:07 CRUISE25138002
2019-09-19 15:38:27 DESCEND25637077
2019-09-19 15:47:10 SIM PAUSED26013992
2019-09-19 15:47:33 SIM UNPAUSED26013990
2019-09-19 15:49:17 CRUISE22411995
2019-09-19 15:49:20 FLAPS EXTENSION 3 % 22211995
2019-09-19 15:49:20 FLAPS EXTENSION 5 % 22211995
2019-09-19 15:49:20 FLAPS EXTENSION 6 % 22211995
2019-09-19 15:49:20 FLAPS EXTENSION 8 % 22211995
2019-09-19 15:49:21 FLAPS EXTENSION 9 % 22211995
2019-09-19 15:49:21 FLAPS EXTENSION 9 % 22111996
2019-09-19 15:49:27 FLAPS EXTENSION 8 % 21912010
2019-09-19 15:49:27 FLAPS EXTENSION 8 % 21912010
2019-09-19 15:49:27 FLAPS EXTENSION 8 % 21912011
2019-09-19 15:49:27 FLAPS EXTENSION 9 % 21912011
2019-09-19 15:49:27 FLAPS EXTENSION 10 % 21912011
2019-09-19 15:49:27 FLAPS EXTENSION 12 % 21912012
2019-09-19 15:49:27 FLAPS EXTENSION 12 % 21912012
2019-09-19 15:49:27 FLAPS EXTENSION 12 % 21912013
2019-09-19 15:51:38 FLAPS EXTENSION 41 % 20012001
2019-09-19 15:51:38 FLAPS EXTENSION 34 % 20012001
2019-09-19 15:51:38 FLAPS EXTENSION 36 % 20012001
2019-09-19 15:51:38 FLAPS EXTENSION 36 % 20012001
2019-09-19 15:51:39 FLAPS EXTENSION 29 % 20012001
2019-09-19 15:51:39 FLAPS EXTENSION 26 % 20012001
2019-09-19 15:51:39 FLAPS EXTENSION 26 % 20012001
2019-09-19 15:51:39 FLAPS EXTENSION 31 % 20012001
2019-09-19 15:51:39 FLAPS EXTENSION 31 % 20012001
2019-09-19 15:51:39 FLAPS EXTENSION 30 % 20012001
2019-09-19 15:51:39 FLAPS EXTENSION 29 % 20012001
2019-09-19 15:51:40 FLAPS EXTENSION 27 % 20012001
2019-09-19 15:51:40 FLAPS EXTENSION 25 % 20012002
2019-09-19 15:54:17 DESCEND19211618
2019-09-19 15:56:27 CRUISE1728799
2019-09-19 15:56:29 FLAPS EXTENSION 26 % 1718799
2019-09-19 15:56:29 FLAPS EXTENSION 29 % 1718799
2019-09-19 15:56:29 FLAPS EXTENSION 31 % 1718799
2019-09-19 15:56:29 FLAPS EXTENSION 34 % 1718798
2019-09-19 15:56:30 FLAPS EXTENSION 35 % 1718798
2019-09-19 15:56:30 FLAPS EXTENSION 37 % 1718798
2019-09-19 15:56:33 FLAPS EXTENSION 35 % 1688801
2019-09-19 15:56:33 FLAPS EXTENSION 35 % 1688802
2019-09-19 15:56:33 FLAPS EXTENSION 37 % 1688802
2019-09-19 15:56:34 FLAPS EXTENSION 42 % 1678802
2019-09-19 15:56:34 FLAPS EXTENSION 43 % 1678803
2019-09-19 15:56:34 FLAPS EXTENSION 45 % 1678803
2019-09-19 15:56:34 FLAPS EXTENSION 46 % 1678803
2019-09-19 15:56:34 FLAPS EXTENSION 47 % 1678803
2019-09-19 15:56:34 FLAPS EXTENSION 47 % 1678803
2019-09-19 15:56:34 FLAPS EXTENSION 48 % 1678804
2019-09-19 15:56:34 FLAPS EXTENSION 49 % 1678804
2019-09-19 15:56:35 FLAPS EXTENSION 50 % 1678804
2019-09-19 15:56:35 FLAPS EXTENSION 50 % 1678805
2019-09-19 15:56:35 FLAPS EXTENSION 51 % 1678805
2019-09-19 15:56:35 FLAPS EXTENSION 51 % 1668806
2019-09-19 15:56:36 FLAPS EXTENSION 50 % 1668806
2019-09-19 15:56:36 FLAPS EXTENSION 50 % 1668806
2019-09-19 15:56:36 FLAPS EXTENSION 49 % 1668807
2019-09-19 15:56:36 FLAPS EXTENSION 50 % 1668807
2019-09-19 15:56:36 FLAPS EXTENSION 50 % 1668807
2019-09-19 15:56:54 GEAR DOWN1668806
2019-09-19 15:57:15 FLAPS EXTENSION 61 % 1658801
2019-09-19 15:57:15 FLAPS EXTENSION 61 % 1658801
2019-09-19 15:57:15 FLAPS EXTENSION 59 % 1658801
2019-09-19 15:57:16 FLAPS EXTENSION 61 % 1658801
2019-09-19 15:57:16 FLAPS EXTENSION 61 % 1658801
2019-09-19 15:57:16 FLAPS EXTENSION 61 % 1658801
2019-09-19 15:57:16 FLAPS EXTENSION 62 % 1658801
2019-09-19 15:57:16 FLAPS EXTENSION 62 % 1658801
2019-09-19 15:57:16 FLAPS EXTENSION 62 % 1658801
2019-09-19 15:57:17 FLAPS EXTENSION 62 % 1658802
2019-09-19 15:57:40 FLAPS EXTENSION 74 % 1568746
2019-09-19 15:57:40 FLAPS EXTENSION 69 % 1568746
2019-09-19 15:57:40 FLAPS EXTENSION 70 % 1568745
2019-09-19 15:57:40 FLAPS EXTENSION 71 % 1568744
2019-09-19 15:57:40 FLAPS EXTENSION 72 % 1568743
2019-09-19 15:57:40 FLAPS EXTENSION 72 % 1558743
2019-09-19 15:57:40 FLAPS EXTENSION 73 % 1558742
2019-09-19 15:57:41 FLAPS EXTENSION 74 % 1558741
2019-09-19 15:57:41 FLAPS EXTENSION 75 % 1558740
2019-09-19 15:57:41 FLAPS EXTENSION 75 % 1548739
2019-09-19 15:57:42 FLAPS EXTENSION 74 % 1538734
2019-09-19 15:57:42 FLAPS EXTENSION 73 % 1538734
2019-09-19 15:57:42 FLAPS EXTENSION 73 % 1528733
2019-09-19 15:57:42 FLAPS EXTENSION 73 % 1528733
2019-09-19 15:57:42 FLAPS EXTENSION 74 % 1528732
2019-09-19 15:57:42 FLAPS EXTENSION 75 % 1528732
2019-09-19 15:57:46 FLAPS EXTENSION 87 % 1468727
2019-09-19 15:57:46 FLAPS EXTENSION 86 % 1468727
2019-09-19 15:57:46 FLAPS EXTENSION 85 % 1468727
2019-09-19 15:57:46 FLAPS EXTENSION 86 % 1468727
2019-09-19 15:57:46 FLAPS EXTENSION 86 % 1468727
2019-09-19 15:57:46 FLAPS EXTENSION 87 % 1468727
2019-09-19 15:57:47 FLAPS EXTENSION 87 % 1458729
2019-09-19 15:57:47 FLAPS EXTENSION 87 % 1458729
2019-09-19 15:58:27 DESCEND1458493
2019-09-19 15:58:58 FLAPS EXTENSION 100 % 1458156
2019-09-19 16:00:15 LANDING1375842
2019-09-19 16:00:55 TAXI TO THE GATE195831
2019-09-19 16:01:11 FLAPS EXTENSION 93 % 25830
2019-09-19 16:01:11 FLAPS EXTENSION 79 % 25830
2019-09-19 16:01:11 FLAPS EXTENSION 74 % 25830
2019-09-19 16:01:11 FLAPS EXTENSION 69 % 25830
2019-09-19 16:01:11 FLAPS EXTENSION 56 % 25830
2019-09-19 16:01:11 FLAPS EXTENSION 31 % 25830
2019-09-19 16:01:11 FLAPS EXTENSION 20 % 25830
2019-09-19 16:01:12 FLAPS EXTENSION 0 % 25830
2019-09-19 16:02:05 TIME COMPRESSION x215831
 ACARS DATA
DATE IASGSALTITUDEFUEL CONSUMED OATFLIGHT STATUS
2019-09-19 14:20:13501031132BOARDING
2019-09-19 14:21:13501031132BOARDING
2019-09-19 14:22:13601031132BOARDING
2019-09-19 14:23:13501031132BOARDING
2019-09-19 14:24:13501031132BOARDING
2019-09-19 14:25:13501031132BOARDING
2019-09-19 14:26:13601031132BOARDING
2019-09-19 14:27:13501031332BOARDING
2019-09-19 14:28:13601031432BOARDING
2019-09-19 14:29:13721031632BOARDING
2019-09-19 14:30:137010311232BOARDING
2019-09-19 14:31:137010312032BOARDING
2019-09-19 14:32:137010313232BOARDING
2019-09-19 14:33:133810314932BOARDING
2019-09-19 14:34:1371610316432TAXI TO THE RWY
2019-09-19 14:35:1312710307632TAXI TO THE RWY
2019-09-19 14:36:13173177187320130CLIMBING
2019-09-19 14:37:13207226347230727CLIMBING
2019-09-19 14:38:13244273479738924CLIMBING
2019-09-19 14:39:13243275616345420CLIMBING
2019-09-19 14:40:13244278775852317CLIMBING
2019-09-19 14:41:13244284927658913CLIMBING
2019-09-19 14:42:13244292107806559CLIMBING
2019-09-19 14:43:13277339123087385CLIMBING
2019-09-19 14:44:13279346137998032CLIMBING
2019-09-19 14:45:1327935215415872-1CLIMBING
2019-09-19 14:46:1330639316948955-5CLIMBING
2019-09-19 14:47:13307407193111036-11CLIMBING
2019-09-19 14:48:13307422215071117-17CLIMBING
2019-09-19 14:49:13307435235341193-22CLIMBING
2019-09-19 14:50:13307449253751268-27CLIMBING
2019-09-19 14:51:13307462271251340-32CLIMBING
2019-09-19 14:52:13300467290611412-37CLIMBING
2019-09-19 14:53:13287465311341479-43CLIMBING
2019-09-19 14:54:13275463330221542-47CLIMBING
2019-09-19 14:55:13264461347271603-52CLIMBING
2019-09-19 14:56:13255457363001660-56CLIMBING
2019-09-19 14:57:13247457375311714-56CLIMBING
2019-09-19 14:58:13250467380021762-56CRUISE
2019-09-19 14:59:13249465380031798-56CRUISE
2019-09-19 15:00:13249465380031835-56CRUISE
2019-09-19 15:01:13249465380521872-56CRUISE
2019-09-19 15:02:13249466381061910-56CRUISE
2019-09-19 15:03:13249466381131946-56CRUISE
2019-09-19 15:04:13249466381071982-56CRUISE
2019-09-19 15:05:13249466381072019-56CRUISE
2019-09-19 15:06:13249467381222056-56CRUISE
2019-09-19 15:07:13249467382202094-56CRUISE
2019-09-19 15:08:13249468382462132-56CRUISE
2019-09-19 15:09:13249472382622169-56CRUISE
2019-09-19 15:10:13249476382822206-56CRUISE
2019-09-19 15:11:13249476383032244-56CRUISE
2019-09-19 15:12:13248475383072279-56CRUISE
2019-09-19 15:13:13249473383062316-56CRUISE
2019-09-19 15:14:13249473383182353-56CRUISE
2019-09-19 15:15:13248473383232390-56CRUISE
2019-09-19 15:16:13249474383242426-56CRUISE
2019-09-19 15:17:13249473383092462-56CRUISE
2019-09-19 15:18:13249473382452497-56CRUISE
2019-09-19 15:19:13249473381182531-56CRUISE
2019-09-19 15:20:13249473380762567-56CRUISE
2019-09-19 15:21:13248467380692604-56CRUISE
2019-09-19 15:22:13250475380342643-56CRUISE
2019-09-19 15:23:13248473380372678-56CRUISE
2019-09-19 15:24:13250465380382719-56CRUISE
2019-09-19 15:25:13250476380052759-56CRUISE
2019-09-19 15:26:13249471379912796-56CRUISE
2019-09-19 15:27:13249471379302831-56CRUISE
2019-09-19 15:28:13249472379252868-56CRUISE
2019-09-19 15:29:13250463379272906-56CRUISE
2019-09-19 15:30:13249461379262943-56CRUISE
2019-09-19 15:31:13249463379102979-56CRUISE
2019-09-19 15:32:13249463378883015-56CRUISE
2019-09-19 15:33:13249464378883052-56CRUISE
2019-09-19 15:34:13249464378893088-56CRUISE
2019-09-19 15:35:13249465378963125-56CRUISE
2019-09-19 15:36:13249464379323162-56CRUISE
2019-09-19 15:37:13249470379713202-56CRUISE
2019-09-19 15:38:13255476375693237-56CRUISE
2019-09-19 15:39:13259465356023247-54DESCEND
2019-09-19 15:40:13271467337713266-50DESCEND
2019-09-19 15:41:13284469318003285-45DESCEND
2019-09-19 15:42:13297465295793306-39DESCEND
2019-09-19 15:43:13292440258793317-30DESCEND
2019-09-19 15:44:13285411225533326-22DESCEND
2019-09-19 15:45:13286387192593335-13DESCEND
2019-09-19 15:46:13286367159503345-5DESCEND
2019-09-19 15:47:132593261399033550DESCEND
2019-09-19 15:48:132473061280633632DESCEND
2019-09-19 15:49:132282801199733884DESCEND
2019-09-19 15:50:132202691200734315CRUISE
2019-09-19 15:51:132002431200334635CRUISE
2019-09-19 15:52:131912321199635025CRUISE
2019-09-19 15:53:131902311199935475CRUISE
2019-09-19 15:54:131932341173435896CRUISE
2019-09-19 15:55:131942319963360310DESCEND
2019-09-19 15:56:131722038789362113DESCEND
2019-09-19 15:57:131651948800367513CRUISE
2019-09-19 15:58:131441708635374013CRUISE
2019-09-19 15:59:131431657980380615DESCEND
2019-09-19 16:00:131401505846383520DESCEND
2019-09-19 16:01:13125829384620TAXI TO THE GATE
2019-09-19 16:02:13395835386920TAXI TO THE GATE